createdAt,value
2022-11-06T00:01:12.853Z,9.70
2022-11-06T00:03:41.480Z,9.62
2022-11-06T00:06:34.270Z,9.42
2022-11-06T00:09:05.205Z,9.16
2022-11-06T00:11:33.663Z,8.99
2022-11-06T00:14:02.436Z,9.53
2022-11-06T00:16:30.876Z,9.53
2022-11-06T00:19:02.721Z,8.99
2022-11-06T00:21:32.266Z,9.17
2022-11-06T00:24:01.568Z,9.28
2022-11-06T00:26:30.914Z,8.66
2022-11-06T00:28:59.450Z,9.35
2022-11-06T00:31:30.556Z,9.02
2022-11-06T00:33:59.797Z,9.17
2022-11-06T00:36:33.042Z,8.98
2022-11-06T00:39:01.438Z,9.37
2022-11-06T00:41:30.605Z,8.93
2022-11-06T00:44:03.336Z,9.13
2022-11-06T00:46:31.886Z,8.27
2022-11-06T00:49:00.825Z,8.28
2022-11-06T00:51:32.476Z,8.47
2022-11-06T00:54:02.673Z,8.81
2022-11-06T00:56:32.036Z,9.06
2022-11-06T00:59:01.200Z,8.84
2022-11-06T01:01:32.938Z,8.82
2022-11-06T01:04:03.713Z,9.27
2022-11-06T01:06:34.693Z,9.42
2022-11-06T01:09:03.365Z,8.71
2022-11-06T01:11:59.172Z,9.25
2022-11-06T01:14:26.554Z,8.44
2022-11-06T01:16:55.620Z,8.86
2022-11-06T01:19:24.090Z,8.40
2022-11-06T01:21:56.014Z,9.19
2022-11-06T01:24:26.377Z,9.11
2022-11-06T01:29:43.426Z,8.84
2022-11-06T01:32:11.834Z,8.11
2022-11-06T01:34:40.321Z,8.73
2022-11-06T01:37:13.999Z,8.43
2022-11-06T01:39:43.216Z,8.97
2022-11-06T01:42:14.441Z,8.76
2022-11-06T01:44:42.805Z,9.09
2022-11-06T01:47:25.525Z,9.30
2022-11-06T01:49:56.633Z,8.67
2022-11-06T01:52:25.351Z,9.01
2022-11-06T01:54:56.738Z,9.23
2022-11-06T01:57:25.127Z,9.32
2022-11-06T01:59:53.538Z,9.09
2022-11-06T02:02:22.094Z,8.36
2022-11-06T02:04:50.675Z,8.29
2022-11-06T02:07:19.503Z,8.97
2022-11-06T02:09:47.909Z,8.90
2022-11-06T02:12:33.917Z,8.52
2022-11-06T02:15:11.095Z,8.38
2022-11-06T02:18:03.184Z,8.43
2022-11-06T02:20:53.359Z,8.97
2022-11-06T02:23:38.046Z,8.96
2022-11-06T02:26:30.453Z,9.06
2022-11-06T02:29:02.459Z,8.97
2022-11-06T02:31:32.197Z,8.97
2022-11-06T02:34:03.820Z,8.82
2022-11-06T02:36:38.376Z,8.98
2022-11-06T02:39:11.491Z,8.76
2022-11-06T02:41:41.538Z,8.55
2022-11-06T02:44:15.973Z,8.82
2022-11-06T02:46:47.354Z,8.76
2022-11-06T02:49:18.897Z,8.80
2022-11-06T02:51:49.642Z,8.79
2022-11-06T02:54:19.789Z,8.88
2022-11-06T02:56:48.709Z,8.56
2022-11-06T02:59:29.224Z,8.54
2022-11-06T03:02:00.652Z,8.71
2022-11-06T03:04:55.223Z,8.76
2022-11-06T03:07:35.754Z,8.47
2022-11-06T03:10:05.321Z,8.29
2022-11-06T03:12:54.038Z,8.53
2022-11-06T03:15:34.701Z,8.66
2022-11-06T03:18:11.819Z,8.86
2022-11-06T03:20:45.129Z,8.79
2022-11-06T03:23:29.448Z,8.70
2022-11-06T03:26:24.086Z,8.54
2022-11-06T03:28:54.759Z,8.70
2022-11-06T03:31:35.543Z,8.51
2022-11-06T03:34:12.820Z,8.67
2022-11-06T03:36:43.635Z,7.87
2022-11-06T03:39:15.396Z,8.39
2022-11-06T03:41:50.051Z,8.77
2022-11-06T03:44:21.590Z,8.03
2022-11-06T03:47:08.123Z,7.71
2022-11-06T03:49:39.785Z,7.21
2022-11-06T03:52:33.207Z,8.16
2022-11-06T03:55:13.276Z,7.31
2022-11-06T03:57:48.846Z,8.16
2022-11-06T04:00:17.511Z,8.05
2022-11-06T04:02:48.788Z,7.95
2022-11-06T04:05:21.154Z,7.93
2022-11-06T04:08:09.387Z,8.27
2022-11-06T04:10:57.581Z,8.21
2022-11-06T04:13:55.066Z,8.15
2022-11-06T04:16:25.105Z,8.06
2022-11-06T04:18:53.536Z,8.16
2022-11-06T04:21:30.900Z,7.09
2022-11-06T04:24:54.251Z,7.63
2022-11-06T04:27:27.455Z,7.54
2022-11-06T04:30:01.615Z,6.71
2022-11-06T04:33:06.301Z,7.29
2022-11-06T04:36:01.250Z,7.08
2022-11-06T04:38:54.242Z,7.51
2022-11-06T04:41:34.833Z,7.63
2022-11-06T04:44:46.778Z,7.84
2022-11-06T04:47:19.635Z,7.36
2022-11-06T04:49:48.953Z,7.09
2022-11-06T04:52:23.973Z,7.67
2022-11-06T04:54:55.460Z,7.53
2022-11-06T04:57:24.002Z,6.77
2022-11-06T04:59:52.443Z,6.72
2022-11-06T05:02:21.460Z,7.07
2022-11-06T05:04:50.099Z,7.70
2022-11-06T05:07:18.553Z,7.14
2022-11-06T05:09:47.155Z,6.63
2022-11-06T05:12:15.950Z,6.66
2022-11-06T05:14:44.370Z,6.90
2022-11-06T05:17:12.870Z,7.43
2022-11-06T05:19:41.239Z,7.07
2022-11-06T05:22:28.593Z,6.87
2022-11-06T05:24:57.181Z,7.00
2022-11-06T05:27:26.174Z,6.52
2022-11-06T05:29:54.566Z,6.49
2022-11-06T05:32:22.921Z,6.86
2022-11-06T05:34:51.316Z,6.82
2022-11-06T05:37:19.832Z,6.87
2022-11-06T05:39:48.344Z,6.78
2022-11-06T05:42:16.790Z,7.16
2022-11-06T05:44:45.250Z,7.41
2022-11-06T05:47:13.658Z,7.56
2022-11-06T05:49:42.033Z,7.42
2022-11-06T05:52:11.406Z,7.94
2022-11-06T05:54:39.883Z,7.98
2022-11-06T05:57:08.381Z,7.96
2022-11-06T05:59:36.703Z,8.29
2022-11-06T06:02:05.337Z,8.02
2022-11-06T06:04:33.875Z,8.02
2022-11-06T06:07:02.344Z,8.22
2022-11-06T06:09:30.639Z,8.37
2022-11-06T06:11:59.093Z,8.35
2022-11-06T06:14:27.468Z,8.30
2022-11-06T06:16:55.857Z,8.36
2022-11-06T06:19:24.305Z,8.13
2022-11-06T06:21:52.725Z,7.99
2022-11-06T06:24:21.139Z,7.28
2022-11-06T06:26:49.638Z,6.72
2022-11-06T06:29:18.007Z,7.90
2022-11-06T06:31:46.402Z,8.06
2022-11-06T06:34:16.009Z,8.22
2022-11-06T06:36:44.453Z,8.44
2022-11-06T06:39:12.903Z,8.59
2022-11-06T06:41:41.358Z,8.61
2022-11-06T06:44:09.926Z,8.57
2022-11-06T06:46:38.393Z,8.72
2022-11-06T06:49:06.783Z,8.74
2022-11-06T06:51:35.194Z,8.82
2022-11-06T06:54:04.010Z,8.76
2022-11-06T06:56:32.508Z,8.76
2022-11-06T06:59:00.997Z,8.74
2022-11-06T07:01:29.779Z,8.97
2022-11-06T07:04:03.955Z,8.70
2022-11-06T07:06:33.017Z,8.90
2022-11-06T07:09:01.472Z,8.98
2022-11-06T07:11:30.433Z,9.19
2022-11-06T07:13:58.994Z,9.08
2022-11-06T07:16:27.917Z,9.06
2022-11-06T07:18:57.027Z,8.86
2022-11-06T07:21:25.595Z,8.87
2022-11-06T07:23:53.978Z,9.23
2022-11-06T07:26:22.472Z,9.29
2022-11-06T07:28:50.879Z,9.40
2022-11-06T07:31:19.322Z,9.43
2022-11-06T07:33:47.893Z,9.29
2022-11-06T07:36:17.108Z,9.38
2022-11-06T07:38:46.075Z,9.38
2022-11-06T07:41:15.382Z,9.44
2022-11-06T07:43:43.889Z,9.37
2022-11-06T07:46:13.137Z,9.37
2022-11-06T07:48:41.582Z,9.45
2022-11-06T07:51:10.951Z,9.68
2022-11-06T07:53:39.573Z,9.66
2022-11-06T07:56:09.068Z,9.86
2022-11-06T07:58:37.564Z,9.89
2022-11-06T08:01:06.813Z,9.79
2022-11-06T08:03:35.990Z,9.97
2022-11-06T08:06:05.606Z,9.92
2022-11-06T08:08:34.096Z,9.99
2022-11-06T08:11:07.299Z,9.96
2022-11-06T08:13:36.582Z,9.78
2022-11-06T08:16:05.825Z,10.06
2022-11-06T08:18:34.530Z,10.18
2022-11-06T08:21:03.899Z,10.17
2022-11-06T08:23:32.350Z,10.33
2022-11-06T08:26:02.647Z,10.39
2022-11-06T08:28:31.128Z,10.40
2022-11-06T08:31:04.238Z,10.30
2022-11-06T08:33:32.811Z,10.39
2022-11-06T08:36:03.661Z,10.37
2022-11-06T08:38:32.195Z,10.49
2022-11-06T08:41:07.218Z,10.42
2022-11-06T08:43:36.006Z,10.50
2022-11-06T08:46:08.171Z,10.49
2022-11-06T08:48:36.741Z,10.61
2022-11-06T08:51:05.935Z,10.72
2022-11-06T08:53:34.541Z,10.55
2022-11-06T08:56:04.501Z,10.50
2022-11-06T08:58:32.987Z,10.73
2022-11-06T09:01:01.527Z,10.64
2022-11-06T09:03:30.004Z,10.74
2022-11-06T09:05:58.623Z,10.64
2022-11-06T09:08:27.268Z,10.75
2022-11-06T09:10:58.680Z,10.70
2022-11-06T09:13:27.480Z,10.69
2022-11-06T09:15:56.009Z,10.84
2022-11-06T09:18:24.444Z,10.89
2022-11-06T09:20:56.822Z,10.96
2022-11-06T09:23:25.612Z,10.95
2022-11-06T09:25:54.268Z,10.86
2022-11-06T09:28:22.736Z,10.88
2022-11-06T09:30:51.167Z,10.58
2022-11-06T09:33:20.190Z,10.86
2022-11-06T09:35:48.999Z,10.95
2022-11-06T09:38:18.700Z,11.02
2022-11-06T09:40:55.943Z,10.73
2022-11-06T09:44:03.105Z,10.84
2022-11-06T09:46:24.912Z,10.95
2022-11-06T09:49:06.536Z,11.10
2022-11-06T09:51:46.423Z,11.26
2022-11-06T09:54:29.471Z,11.28
2022-11-06T09:57:05.291Z,11.34
2022-11-06T09:59:35.180Z,11.31
2022-11-06T10:02:03.860Z,11.21
2022-11-06T10:04:47.597Z,11.25
2022-11-06T10:07:22.479Z,11.33
2022-11-06T10:09:51.352Z,11.37
2022-11-06T10:12:30.015Z,11.37
2022-11-06T10:15:08.789Z,11.35
2022-11-06T10:17:37.118Z,11.31
2022-11-06T10:20:20.896Z,11.28
2022-11-06T10:23:18.033Z,11.44
2022-11-06T10:26:03.507Z,11.33
2022-11-06T10:28:53.730Z,11.18
2022-11-06T10:31:34.129Z,10.81
2022-11-06T10:34:02.487Z,10.94
2022-11-06T10:36:44.992Z,11.12
2022-11-06T10:39:36.767Z,11.53
2022-11-06T10:42:10.454Z,11.22
2022-11-06T10:44:40.342Z,11.19
2022-11-06T10:47:21.820Z,11.20
2022-11-06T10:49:58.548Z,11.22
2022-11-06T10:52:46.028Z,11.25
2022-11-06T10:55:14.705Z,11.30
2022-11-06T10:57:59.584Z,11.45
2022-11-06T11:00:28.604Z,11.11
2022-11-06T11:02:57.531Z,11.21
2022-11-06T11:05:27.760Z,11.24
2022-11-06T11:07:56.834Z,11.18
2022-11-06T11:10:31.243Z,10.98
2022-11-06T11:13:08.141Z,10.98
2022-11-06T11:15:47.078Z,11.00
2022-11-06T11:18:34.621Z,10.66
2022-11-06T11:21:20.570Z,10.76
2022-11-06T11:24:12.384Z,10.98
2022-11-06T11:26:45.313Z,10.89
2022-11-06T11:29:17.839Z,11.14
2022-11-06T11:31:48.818Z,11.19
2022-11-06T11:34:23.134Z,10.95
2022-11-06T11:36:59.105Z,11.22
2022-11-06T11:39:45.054Z,11.18
2022-11-06T11:42:43.655Z,11.33
2022-11-06T11:45:16.437Z,11.45
2022-11-06T11:47:49.344Z,11.52
2022-11-06T11:50:26.639Z,11.55
2022-11-06T11:53:19.722Z,11.24
2022-11-06T11:55:51.436Z,11.61
2022-11-06T11:58:26.915Z,11.53
2022-11-06T12:01:02.841Z,11.50
2022-11-06T12:03:42.868Z,11.55
2022-11-06T12:06:15.872Z,11.63
2022-11-06T12:08:54.810Z,11.32
2022-11-06T12:11:26.676Z,11.48
2022-11-06T12:14:18.560Z,11.78
2022-11-06T12:16:50.215Z,11.31
2022-11-06T12:19:20.282Z,11.43
2022-11-06T12:21:54.698Z,11.60
2022-11-06T12:24:25.142Z,11.54
2022-11-06T12:27:00.234Z,11.56
2022-11-06T12:29:35.350Z,11.75
2022-11-06T12:32:22.175Z,11.74
2022-11-06T12:35:23.526Z,11.82
2022-11-06T12:38:12.617Z,11.74
2022-11-06T12:40:45.500Z,11.80
2022-11-06T12:43:13.925Z,11.85
2022-11-06T12:46:10.339Z,11.90
2022-11-06T12:49:16.680Z,11.89
2022-11-06T12:51:45.550Z,11.83
2022-11-06T12:54:39.452Z,11.94
2022-11-06T12:57:24.154Z,11.86
2022-11-06T12:59:59.309Z,11.80
2022-11-06T13:02:40.357Z,11.95
2022-11-06T13:05:21.015Z,11.95
2022-11-06T13:07:59.639Z,11.95
2022-11-06T13:11:14.176Z,11.90
2022-11-06T13:13:57.810Z,11.83
2022-11-06T13:16:57.256Z,11.78
2022-11-06T13:19:41.546Z,11.79
2022-11-06T13:22:17.061Z,11.84
2022-11-06T13:25:03.657Z,12.00
2022-11-06T13:27:43.665Z,12.00
2022-11-06T13:30:18.712Z,12.09
2022-11-06T13:33:04.794Z,12.08
2022-11-06T13:35:33.947Z,12.07
2022-11-06T13:38:03.670Z,12.09
2022-11-06T13:40:44.015Z,12.13
2022-11-06T13:43:44.236Z,11.98
2022-11-06T13:46:35.513Z,12.08
2022-11-06T13:49:13.733Z,12.06
2022-11-06T13:51:59.007Z,12.08
2022-11-06T13:54:49.213Z,12.14
2022-11-06T13:57:48.516Z,12.10
2022-11-06T14:00:38.129Z,11.96
2022-11-06T14:03:31.261Z,12.06
2022-11-06T14:06:18.678Z,12.07
2022-11-06T14:08:51.606Z,11.94
2022-11-06T14:11:22.439Z,12.03
2022-11-06T14:14:20.470Z,11.94
2022-11-06T14:17:22.550Z,12.05
2022-11-06T14:19:51.847Z,12.13
2022-11-06T14:22:28.393Z,12.13
2022-11-06T14:25:01.554Z,12.07
2022-11-06T14:27:31.038Z,12.15
2022-11-06T14:30:10.814Z,12.13
2022-11-06T14:32:44.400Z,12.08
2022-11-06T14:35:31.620Z,12.07
2022-11-06T14:38:28.430Z,12.02
2022-11-06T14:40:57.294Z,11.95
2022-11-06T14:43:26.488Z,11.93
2022-11-06T14:46:23.124Z,12.02
2022-11-06T14:48:52.714Z,12.04
2022-11-06T14:51:30.562Z,12.15
2022-11-06T14:54:01.242Z,12.10
2022-11-06T14:56:31.245Z,12.13
2022-11-06T14:59:05.574Z,12.19
2022-11-06T15:01:37.738Z,12.15
2022-11-06T15:04:15.013Z,12.20
2022-11-06T15:06:44.516Z,12.20
2022-11-06T15:09:25.530Z,12.13
2022-11-06T15:12:01.602Z,12.07
2022-11-06T15:14:30.225Z,12.14
2022-11-06T15:17:06.043Z,12.14
2022-11-06T15:19:38.151Z,12.09
2022-11-06T15:22:25.208Z,12.15
2022-11-06T15:25:06.680Z,12.03
2022-11-06T15:27:47.277Z,12.03
2022-11-06T15:30:19.934Z,12.05
2022-11-06T15:32:48.958Z,12.03
2022-11-06T15:35:22.925Z,12.04
2022-11-06T15:37:54.500Z,12.01
2022-11-06T15:40:29.322Z,12.01
2022-11-06T15:43:00.885Z,12.17
2022-11-06T15:45:30.178Z,12.18
2022-11-06T15:48:01.828Z,12.10
2022-11-06T15:50:34.129Z,11.92
2022-11-06T15:53:15.989Z,11.91
2022-11-06T15:56:04.119Z,11.96
2022-11-06T15:58:35.620Z,11.91
2022-11-06T16:01:06.707Z,12.13
2022-11-06T16:03:55.445Z,12.00
2022-11-06T16:06:23.998Z,12.00
2022-11-06T16:08:52.596Z,12.03
2022-11-06T16:11:21.105Z,11.84
2022-11-06T16:13:49.457Z,11.96
2022-11-06T16:16:42.943Z,11.86
2022-11-06T16:19:36.256Z,11.91
2022-11-06T16:22:13.741Z,11.91
2022-11-06T16:24:55.293Z,11.95
2022-11-06T16:27:24.915Z,11.90
2022-11-06T16:29:58.256Z,11.90
2022-11-06T16:32:31.595Z,11.96
2022-11-06T16:35:02.409Z,11.94
2022-11-06T16:37:37.418Z,11.86
2022-11-06T16:40:07.088Z,11.83
2022-11-06T16:42:36.370Z,11.87
2022-11-06T16:45:21.634Z,11.85
2022-11-06T16:48:10.550Z,11.91
2022-11-06T16:50:50.341Z,11.92
2022-11-06T16:53:19.889Z,11.94
2022-11-06T16:56:07.630Z,12.07
2022-11-06T16:58:48.725Z,12.04
2022-11-06T17:01:20.748Z,11.93
2022-11-06T17:04:20.574Z,11.87
2022-11-06T17:06:50.507Z,11.80
2022-11-06T17:09:31.066Z,11.91
2022-11-06T17:12:00.622Z,11.99
2022-11-06T17:14:29.482Z,11.92
2022-11-06T17:16:59.331Z,11.93
2022-11-06T17:19:28.313Z,11.87
2022-11-06T17:21:58.679Z,12.00
2022-11-06T17:24:42.661Z,11.93
2022-11-06T17:27:11.840Z,11.95
2022-11-06T17:29:41.090Z,11.87
2022-11-06T17:32:09.871Z,11.86
2022-11-06T17:34:38.508Z,12.00
2022-11-06T17:37:07.221Z,12.01
2022-11-06T17:39:35.667Z,11.79
2022-11-06T17:42:04.297Z,11.76
2022-11-06T17:44:32.804Z,11.77
2022-11-06T17:47:02.797Z,11.84
2022-11-06T17:49:32.747Z,11.83
2022-11-06T17:52:02.066Z,11.83
2022-11-06T17:54:37.500Z,11.85
2022-11-06T17:57:07.980Z,11.86
2022-11-06T17:59:36.932Z,11.94
2022-11-06T18:02:05.706Z,11.74
2022-11-06T18:04:37.053Z,11.89
2022-11-06T18:07:05.515Z,11.95
2022-11-06T18:09:34.457Z,12.01
2022-11-06T18:12:07.951Z,11.82
2022-11-06T18:14:37.440Z,11.79
2022-11-06T18:17:06.482Z,11.64
2022-11-06T18:19:37.022Z,11.75
2022-11-06T18:22:06.979Z,11.75
2022-11-06T18:24:38.772Z,11.74
2022-11-06T18:27:07.923Z,11.92
2022-11-06T18:29:37.323Z,12.05
2022-11-06T18:32:06.297Z,11.95
2022-11-06T18:34:35.201Z,11.68
2022-11-06T18:37:03.715Z,11.69
2022-11-06T18:39:32.246Z,11.76
2022-11-06T18:42:02.209Z,11.77
2022-11-06T18:44:32.741Z,11.94
2022-11-06T18:47:01.855Z,11.95
2022-11-06T18:49:31.754Z,11.77
2022-11-06T18:52:00.719Z,11.61
2022-11-06T18:54:30.089Z,11.53
2022-11-06T18:56:59.059Z,11.51
2022-11-06T18:59:30.500Z,11.51
2022-11-06T19:02:00.608Z,11.70
2022-11-06T19:04:29.560Z,11.73
2022-11-06T19:06:58.274Z,11.77
2022-11-06T19:09:28.896Z,11.73
2022-11-06T19:11:57.495Z,11.76
2022-11-06T19:14:26.102Z,11.84
2022-11-06T19:16:54.836Z,11.82
2022-11-06T19:19:25.549Z,11.86
2022-11-06T19:21:59.060Z,11.79
2022-11-06T19:24:28.290Z,11.79
2022-11-06T19:26:56.714Z,11.84
2022-11-06T19:29:25.338Z,11.80
2022-11-06T19:31:55.677Z,11.91
2022-11-06T19:34:26.972Z,11.69
2022-11-06T19:36:56.047Z,11.52
2022-11-06T19:39:25.119Z,11.53
2022-11-06T19:41:54.965Z,11.40
2022-11-06T19:44:24.942Z,11.35
2022-11-06T19:46:53.387Z,11.65
2022-11-06T19:49:22.529Z,11.62
2022-11-06T19:51:51.215Z,11.55
2022-11-06T19:54:20.053Z,11.65
2022-11-06T19:57:27.359Z,11.81
2022-11-06T19:59:38.086Z,11.64
2022-11-06T20:02:09.078Z,11.60
2022-11-06T20:04:38.404Z,11.69
2022-11-06T20:07:07.076Z,11.62
2022-11-06T20:09:36.293Z,11.69
2022-11-06T20:12:06.609Z,11.32
2022-11-06T20:14:35.276Z,10.74
2022-11-06T20:17:03.808Z,11.15
2022-11-06T20:19:32.353Z,11.03
2022-11-06T20:22:03.272Z,11.07
2022-11-06T20:24:31.729Z,10.70
2022-11-06T20:27:00.168Z,10.56
2022-11-06T20:29:28.529Z,10.51
2022-11-06T20:31:57.643Z,10.58
2022-11-06T20:34:26.345Z,10.53
2022-11-06T20:36:56.100Z,10.66
2022-11-06T20:39:25.795Z,10.77
2022-11-06T20:41:54.377Z,10.64
2022-11-06T20:44:22.734Z,10.21
2022-11-06T20:46:51.845Z,10.01
2022-11-06T20:49:20.958Z,10.03
2022-11-06T20:52:12.695Z,9.84
2022-11-06T20:54:40.125Z,9.79
2022-11-06T20:57:11.544Z,10.06
2022-11-06T20:59:39.976Z,10.41
2022-11-06T21:02:11.105Z,10.53
2022-11-06T21:04:39.728Z,10.52
2022-11-06T21:07:08.248Z,10.20
2022-11-06T21:09:36.682Z,10.11
2022-11-06T21:12:05.456Z,10.44
2022-11-06T21:14:34.053Z,10.03
2022-11-06T21:17:02.725Z,9.97
2022-11-06T21:19:31.249Z,10.10
2022-11-06T21:22:01.187Z,10.35
2022-11-06T21:24:29.582Z,10.11
2022-11-06T21:26:58.023Z,10.17
2022-11-06T21:29:27.522Z,9.98
2022-11-06T21:31:56.406Z,10.05
2022-11-06T21:34:25.044Z,10.13
2022-11-06T21:36:56.944Z,9.93
2022-11-06T21:39:31.814Z,10.15
2022-11-06T21:42:05.450Z,10.15
2022-11-06T21:44:33.817Z,10.18
2022-11-06T21:47:02.270Z,10.27
2022-11-06T21:49:30.684Z,9.99
2022-11-06T21:52:19.020Z,10.27
2022-11-06T21:55:05.662Z,10.37
2022-11-06T21:57:34.781Z,10.35
2022-11-06T22:00:03.865Z,10.12
2022-11-06T22:02:40.384Z,10.13
2022-11-06T22:05:09.223Z,10.20
2022-11-06T22:07:37.636Z,10.27
2022-11-06T22:10:06.622Z,10.29
2022-11-06T22:12:35.256Z,10.25
2022-11-06T22:15:03.954Z,10.30
2022-11-06T22:17:32.471Z,10.27
2022-11-06T22:20:00.878Z,10.19
2022-11-06T22:22:29.357Z,9.83
2022-11-06T22:24:57.845Z,9.56
2022-11-06T22:27:26.242Z,9.63
2022-11-06T22:29:54.653Z,10.01
2022-11-06T22:32:23.213Z,10.22
2022-11-06T22:34:51.578Z,10.23
2022-11-06T22:37:19.901Z,10.20
2022-11-06T22:39:49.489Z,10.05
2022-11-06T22:42:17.855Z,9.74
2022-11-06T22:44:46.614Z,10.07
2022-11-06T22:47:15.181Z,10.18
2022-11-06T22:49:43.573Z,10.08
2022-11-06T22:52:11.954Z,10.12
2022-11-06T22:54:40.336Z,10.19
2022-11-06T22:57:08.735Z,10.27
2022-11-06T22:59:37.131Z,10.13
2022-11-06T23:02:05.544Z,10.39
2022-11-06T23:04:34.976Z,10.17
2022-11-06T23:07:03.400Z,10.15
2022-11-06T23:09:31.911Z,10.27
2022-11-06T23:12:00.605Z,10.25
2022-11-06T23:14:29.105Z,10.34
2022-11-06T23:16:57.506Z,10.31
2022-11-06T23:19:25.910Z,10.12
2022-11-06T23:22:17.068Z,10.19
2022-11-06T23:24:46.099Z,10.29
2022-11-06T23:27:16.053Z,10.35
2022-11-06T23:29:44.516Z,10.32
2022-11-06T23:32:13.209Z,10.23
2022-11-06T23:34:41.630Z,10.40
2022-11-06T23:37:10.043Z,10.27
2022-11-06T23:39:38.448Z,10.31
2022-11-06T23:42:08.528Z,10.19
2022-11-06T23:44:55.417Z,10.31
2022-11-06T23:47:23.786Z,10.16
2022-11-06T23:49:52.290Z,9.62
2022-11-06T23:52:20.880Z,9.72
2022-11-06T23:54:49.358Z,9.99
2022-11-06T23:57:17.729Z,10.12
2022-11-06T23:59:46.156Z,10.34
